Engel's, Russia
Current Conditions -  °F | °C
As of 9:30 PM on Wednesday 26 Nov 2014 (Local Time) from UWSS Reporting Station
Haze Haze  
Wind Chill: 14°   Ceiling: Unl
Heat Index: 14°   Visibility: 3mi
Dew Point:   Wind: 0mph
Humidity: 67%   Direction: NA
Pressure: 30.48"   Gusts: NA
Location:  51.3°N, 46.12°E
Report Text: UWSS 261830Z 00000MPS 5000 HZ SKC M10/M15 Q1032 120///60 NOSIGRMK QFE762
Loading
Personal Weather Stations






























Interactive Weather Map New forecast layout! Learn more

10-Day Weather Forecast

Advertisements
Track Severe Weather on mobile